Time;durP1;ratioP1;P1;durP2;ratioP2;P2;SDS_P1;SDS_P2;PMS_P1;PMS_P2;Temp;Humidity;BMP_temperature;BMP_pressure;BME280_temperature;BME280_humidity;BME280_pressure;Samples;Min_cycle;Max_cycle;Signal;HPM_P1;HPM_P2
2021/07/24 00:02:16;;;;;;;13.43;10.10;;;24.00;99.90;;;;;;4992174;28;20019;-79
2021/07/24 00:04:42;;;;;;;18.10;10.40;;;24.00;99.90;;;;;;4992428;28;20503;-73
2021/07/24 00:07:08;;;;;;;19.88;10.48;;;24.00;99.90;;;;;;4992409;28;20026;-76
2021/07/24 00:09:35;;;;;;;15.10;9.52;;;24.00;99.90;;;;;;4974982;28;20026;-81
2021/07/24 00:12:00;;;;;;;16.95;9.85;;;23.90;99.90;;;;;;4992272;28;20030;-74
2021/07/24 00:14:26;;;;;;;12.45;9.30;;;23.90;99.90;;;;;;4992286;28;20395;-75
2021/07/24 00:16:52;;;;;;;15.00;10.20;;;23.90;99.90;;;;;;4992490;28;20101;-77
2021/07/24 00:19:17;;;;;;;15.77;10.10;;;23.90;99.90;;;;;;4992228;28;20039;-74
2021/07/24 00:21:43;;;;;;;17.67;9.68;;;23.90;99.90;;;;;;4987452;28;20114;-78
2021/07/24 00:24:09;;;;;;;17.92;9.27;;;23.90;99.90;;;;;;4974629;28;20423;-76
2021/07/24 00:26:34;;;;;;;13.10;9.43;;;23.80;99.90;;;;;;4994903;28;20403;-75
2021/07/24 00:29:02;;;;;;;16.85;10.48;;;23.80;99.90;;;;;;4995517;28;20093;-77
2021/07/24 00:31:28;;;;;;;17.13;10.52;;;23.80;99.90;;;;;;4994238;28;20034;-75
2021/07/24 00:33:54;;;;;;;18.88;10.52;;;23.80;99.90;;;;;;4992146;28;20501;-74
2021/07/24 00:36:19;;;;;;;13.65;10.48;;;23.70;99.90;;;;;;4994156;28;20030;-79
2021/07/24 00:38:45;;;;;;;14.45;10.20;;;23.70;99.90;;;;;;4986414;28;20424;-74
2021/07/24 00:41:25;;;;;;;18.00;10.30;;;23.70;99.90;;;;;;4995365;28;20486;-73
2021/07/24 00:43:51;;;;;;;12.68;10.35;;;23.60;99.90;;;;;;4992841;28;20085;-75
2021/07/24 00:46:19;;;;;;;13.05;9.50;;;23.60;99.90;;;;;;4993764;28;20452;-73
2021/07/24 00:48:46;;;;;;;14.20;10.07;;;23.60;99.90;;;;;;4994282;28;20026;-74
2021/07/24 00:51:12;;;;;;;16.85;10.85;;;23.60;99.90;;;;;;4995278;28;20113;-74
2021/07/24 00:53:37;;;;;;;15.52;10.00;;;23.60;99.90;;;;;;4977751;28;20109;-74
2021/07/24 00:56:05;;;;;;;13.57;9.50;;;23.60;99.90;;;;;;4995178;28;20400;-78
2021/07/24 00:58:38;;;;;;;21.00;10.45;;;23.50;99.90;;;;;;4974845;28;20025;-74
2021/07/24 01:01:05;;;;;;;13.15;9.95;;;23.50;99.90;;;;;;4994794;28;20454;-74
2021/07/24 01:03:31;;;;;;;15.93;9.93;;;23.50;99.90;;;;;;4995233;28;20022;-74
2021/07/24 01:05:58;;;;;;;14.82;10.18;;;23.60;99.90;;;;;;4977680;28;20133;-76
2021/07/24 01:08:25;;;;;;;16.08;10.48;;;23.60;99.90;;;;;;4994122;28;20023;-83
2021/07/24 01:10:52;;;;;;;14.05;10.63;;;23.60;99.90;;;;;;4993650;28;20034;-74
2021/07/24 01:13:19;;;;;;;13.10;10.50;;;23.60;99.90;;;;;;4994250;28;20371;-76
2021/07/24 01:15:46;;;;;;;14.75;10.18;;;23.70;99.90;;;;;;4994588;28;20037;-76
2021/07/24 01:18:11;;;;;;;24.85;9.32;;;23.70;99.90;;;;;;4993853;28;20076;-74
2021/07/24 01:20:39;;;;;;;14.00;10.35;;;23.70;99.90;;;;;;4993754;28;20018;-75
2021/07/24 01:23:05;;;;;;;12.10;9.50;;;23.70;99.90;;;;;;4993247;28;20699;-76
2021/07/24 01:25:30;;;;;;;14.57;10.07;;;23.70;99.90;;;;;;4994721;28;20037;-79
2021/07/24 01:27:56;;;;;;;15.85;10.30;;;23.70;99.90;;;;;;4992233;28;20157;-76
2021/07/24 01:30:21;;;;;;;14.27;9.75;;;23.70;99.90;;;;;;4983592;28;20113;-75
2021/07/24 01:32:47;;;;;;;15.55;10.15;;;23.70;99.90;;;;;;4992690;28;20547;-74
2021/07/24 01:35:13;;;;;;;14.77;10.13;;;23.60;99.90;;;;;;4992797;28;20025;-78
2021/07/24 01:37:39;;;;;;;13.30;9.57;;;23.70;99.90;;;;;;4994395;28;20034;-76
2021/07/24 01:40:05;;;;;;;11.70;9.15;;;23.60;99.90;;;;;;4994113;28;20034;-74
2021/07/24 01:42:31;;;;;;;14.65;10.20;;;23.60;99.90;;;;;;4993306;28;20023;-73
2021/07/24 01:44:56;;;;;;;16.27;10.10;;;23.60;99.90;;;;;;4992829;28;20068;-74
2021/07/24 01:47:22;;;;;;;15.57;10.65;;;23.50;99.90;;;;;;4992275;28;20030;-79
2021/07/24 01:52:47;;;;;;;17.83;9.90;;;23.50;99.90;;;;;;4992611;28;20041;-74
2021/07/24 01:55:19;;;;;;;16.80;9.70;;;23.50;99.90;;;;;;4992434;28;20022;-74
2021/07/24 01:57:48;;;;;;;12.90;9.32;;;23.50;99.90;;;;;;4992410;28;20041;-73
2021/07/24 02:00:15;;;;;;;11.15;9.05;;;23.50;99.90;;;;;;4992614;28;20100;-76
2021/07/24 02:02:44;;;;;;;16.60;10.40;;;23.40;99.90;;;;;;4993589;28;20042;-74
2021/07/24 02:05:21;;;;;;;20.45;10.07;;;23.40;99.90;;;;;;4993966;28;20022;-74
2021/07/24 02:07:47;;;;;;;17.35;10.95;;;23.40;99.90;;;;;;4993869;28;20104;-74
2021/07/24 02:10:13;;;;;;;15.27;10.82;;;23.40;99.90;;;;;;4993872;28;20501;-75
2021/07/24 02:12:39;;;;;;;15.95;10.18;;;23.40;99.90;;;;;;4993914;28;20030;-77
2021/07/24 02:15:05;;;;;;;15.88;9.23;;;23.40;99.90;;;;;;4993768;28;20046;-80
2021/07/24 02:17:31;;;;;;;16.40;10.00;;;23.50;99.90;;;;;;4993926;28;20030;-76
2021/07/24 02:20:04;;;;;;;12.60;9.65;;;23.50;99.90;;;;;;4993495;28;20476;-73
2021/07/24 02:22:29;;;;;;;11.75;9.05;;;23.40;99.90;;;;;;4975948;28;20139;-74
2021/07/24 02:24:55;;;;;;;13.00;9.65;;;23.50;99.90;;;;;;4991884;28;20097;-74
2021/07/24 02:27:21;;;;;;;13.88;9.63;;;23.50;99.90;;;;;;4981805;28;20023;-76
2021/07/24 02:29:46;;;;;;;17.10;9.48;;;23.50;99.90;;;;;;4988084;28;20078;-75
2021/07/24 02:32:12;;;;;;;14.32;9.48;;;23.50;99.90;;;;;;4992492;28;20030;-77
2021/07/24 02:34:38;;;;;;;17.05;9.75;;;23.50;99.90;;;;;;4991708;28;20038;-74
2021/07/24 02:37:04;;;;;;;17.02;10.13;;;23.40;99.90;;;;;;4992978;28;20378;-75
2021/07/24 02:39:29;;;;;;;14.15;9.77;;;23.40;99.90;;;;;;4993062;28;20026;-77
2021/07/24 02:41:55;;;;;;;15.57;10.13;;;23.40;99.90;;;;;;4996095;28;20076;-73
2021/07/24 02:44:21;;;;;;;22.75;10.32;;;23.40;99.90;;;;;;4993216;28;20050;-75
2021/07/24 02:46:46;;;;;;;16.73;10.80;;;23.40;99.90;;;;;;4990798;28;20100;-76
2021/07/24 02:49:12;;;;;;;20.52;9.90;;;23.40;99.90;;;;;;4991008;28;20541;-77
2021/07/24 02:51:38;;;;;;;11.90;9.77;;;23.30;99.90;;;;;;4991298;28;20053;-78
2021/07/24 02:54:03;;;;;;;14.95;9.52;;;23.30;99.90;;;;;;4991162;28;20026;-75
2021/07/24 02:56:29;;;;;;;14.95;10.07;;;23.30;99.90;;;;;;4990489;28;20030;-74
2021/07/24 02:58:55;;;;;;;14.23;9.32;;;23.30;99.90;;;;;;4991087;28;20052;-74
2021/07/24 03:01:20;;;;;;;12.68;9.75;;;23.40;99.90;;;;;;4991939;28;20044;-74
2021/07/24 03:03:46;;;;;;;13.98;9.60;;;23.30;99.90;;;;;;4992797;28;20062;-75
2021/07/24 03:06:12;;;;;;;14.88;9.35;;;23.30;99.90;;;;;;4993031;28;20025;-74
2021/07/24 03:08:38;;;;;;;16.85;10.55;;;23.30;99.90;;;;;;4993045;28;20456;-74
2021/07/24 03:11:04;;;;;;;13.63;10.48;;;23.30;99.90;;;;;;4992921;28;20045;-76
2021/07/24 03:13:30;;;;;;;14.52;9.98;;;23.30;99.90;;;;;;4993143;28;20113;-78
2021/07/24 03:15:56;;;;;;;14.70;10.75;;;23.30;99.90;;;;;;4992627;28;20027;-76
2021/07/24 03:18:22;;;;;;;15.15;10.05;;;23.30;99.90;;;;;;4992732;28;20485;-74
2021/07/24 03:20:48;;;;;;;17.88;10.38;;;23.30;99.90;;;;;;4993054;28;20032;-78
2021/07/24 03:23:13;;;;;;;16.38;9.88;;;23.30;99.90;;;;;;4992833;28;20014;-78
2021/07/24 03:25:42;;;;;;;13.65;10.27;;;23.30;99.90;;;;;;4991606;28;20030;-76
2021/07/24 03:28:09;;;;;;;14.88;10.35;;;23.30;99.90;;;;;;4992996;28;20023;-77
2021/07/24 03:30:37;;;;;;;14.85;9.65;;;23.30;99.90;;;;;;4992820;28;20455;-78
2021/07/24 03:33:02;;;;;;;13.60;10.98;;;23.40;99.90;;;;;;4992826;28;20022;-78
2021/07/24 03:35:28;;;;;;;16.33;10.32;;;23.40;99.90;;;;;;4992577;28;20153;-76
2021/07/24 03:37:54;;;;;;;14.32;10.63;;;23.50;99.90;;;;;;4992829;28;20101;-86
2021/07/24 03:40:20;;;;;;;15.27;9.75;;;23.50;99.90;;;;;;4992324;28;20101;-77
2021/07/24 03:42:46;;;;;;;15.55;9.68;;;23.60;99.90;;;;;;4992684;28;20027;-76
2021/07/24 03:45:12;;;;;;;12.10;9.77;;;23.60;99.90;;;;;;4992207;28;20058;-76
2021/07/24 03:47:37;;;;;;;15.30;9.48;;;23.70;99.90;;;;;;4992414;28;20033;-78
2021/07/24 03:50:03;;;;;;;14.40;9.07;;;23.70;99.90;;;;;;4992744;28;20030;-77
2021/07/24 03:52:29;;;;;;;24.38;10.02;;;23.70;99.90;;;;;;4992534;28;20443;-75
2021/07/24 03:54:54;;;;;;;13.77;10.77;;;23.80;99.90;;;;;;4991438;28;20491;-75
2021/07/24 03:57:20;;;;;;;12.85;9.88;;;23.80;99.90;;;;;;4992290;28;20491;-74
2021/07/24 03:59:46;;;;;;;13.38;9.80;;;23.90;99.90;;;;;;4994826;28;20468;-77
2021/07/24 04:02:18;;;;;;;15.38;10.43;;;24.00;99.90;;;;;;4996351;28;20026;-75
2021/07/24 04:04:45;;;;;;;15.98;10.50;;;24.00;99.90;;;;;;4996083;28;20034;-78
2021/07/24 04:07:12;;;;;;;14.88;10.15;;;24.10;99.90;;;;;;4996342;28;20065;-77
2021/07/24 04:09:38;;;;;;;11.90;9.27;;;24.10;99.90;;;;;;4995576;28;20387;-75
2021/07/24 04:12:04;;;;;;;15.73;9.93;;;24.20;99.90;;;;;;4995732;28;20049;-78
2021/07/24 04:14:30;;;;;;;20.83;11.05;;;24.30;99.90;;;;;;4996214;28;20076;-74
2021/07/24 04:16:56;;;;;;;20.80;10.10;;;24.40;99.90;;;;;;4995955;28;20042;-75
2021/07/24 04:19:21;;;;;;;12.85;9.60;;;24.50;99.90;;;;;;4995967;28;20030;-75
2021/07/24 04:21:47;;;;;;;15.30;9.85;;;24.60;99.90;;;;;;4995765;28;20029;-78
2021/07/24 04:24:12;;;;;;;19.80;11.15;;;24.60;99.90;;;;;;4983615;28;20089;-75
2021/07/24 04:26:38;;;;;;;19.48;11.10;;;24.60;99.90;;;;;;4975999;28;20133;-76
2021/07/24 04:29:08;;;;;;;17.23;10.52;;;24.60;99.90;;;;;;4995342;28;20116;-74
2021/07/24 04:31:34;;;;;;;18.08;10.77;;;24.60;99.90;;;;;;4991181;28;20042;-74
2021/07/24 04:33:59;;;;;;;19.60;10.75;;;24.70;99.90;;;;;;4994605;28;20018;-73
2021/07/24 04:36:25;;;;;;;14.98;10.00;;;24.70;99.90;;;;;;4995260;28;20029;-74
2021/07/24 04:38:51;;;;;;;14.05;9.73;;;24.70;99.90;;;;;;4994788;28;20022;-77
2021/07/24 04:41:18;;;;;;;18.85;10.25;;;24.80;99.90;;;;;;4994035;28;20049;-74
2021/07/24 04:43:44;;;;;;;18.95;10.23;;;24.80;99.90;;;;;;4993579;28;20068;-81
2021/07/24 04:46:14;;;;;;;16.08;9.70;;;25.00;99.90;;;;;;5009144;28;20045;-74
2021/07/24 04:48:41;;;;;;;14.93;9.70;;;25.20;99.90;;;;;;4985390;28;20086;-74
2021/07/24 04:51:07;;;;;;;19.85;10.77;;;25.80;99.90;;;;;;4983456;28;20026;-73
2021/07/24 04:53:33;;;;;;;11.60;8.93;;;26.40;99.90;;;;;;4998103;28;20395;-74
2021/07/24 04:56:01;;;;;;;11.55;9.38;;;26.70;99.90;;;;;;4994517;28;20054;-75
2021/07/24 04:58:27;;;;;;;15.57;9.40;;;27.20;99.90;;;;;;4995390;28;20121;-74
2021/07/24 05:00:53;;;;;;;12.40;9.57;;;27.60;99.90;;;;;;4995111;28;20068;-74
2021/07/24 05:03:19;;;;;;;13.43;9.73;;;27.40;99.90;;;;;;4995149;28;20030;-74
2021/07/24 05:05:45;;;;;;;11.40;9.25;;;27.20;99.90;;;;;;4995240;28;20057;-74
2021/07/24 05:08:12;;;;;;;14.07;10.45;;;26.70;99.90;;;;;;4994270;28;20487;-74
2021/07/24 05:10:38;;;;;;;13.15;9.75;;;26.40;99.90;;;;;;4994123;28;20030;-73
2021/07/24 05:13:04;;;;;;;13.35;10.43;;;26.30;99.90;;;;;;4995176;28;20022;-73
2021/07/24 05:15:30;;;;;;;20.85;10.25;;;26.20;99.90;;;;;;4994669;28;20153;-73
2021/07/24 05:17:56;;;;;;;25.15;11.60;;;26.60;99.90;;;;;;4994556;28;20038;-73
2021/07/24 05:20:24;;;;;;;14.70;9.82;;;27.00;99.90;;;;;;4994691;28;20117;-73
2021/07/24 05:22:49;;;;;;;11.73;8.82;;;27.30;99.90;;;;;;4994636;28;20022;-78
2021/07/24 05:25:15;;;;;;;15.43;9.27;;;28.10;99.90;;;;;;4994655;28;20034;-75
2021/07/24 05:27:41;;;;;;;15.77;9.32;;;29.50;99.90;;;;;;4994020;28;20471;-74
2021/07/24 05:30:07;;;;;;;14.20;9.60;;;30.70;99.90;;;;;;4993787;28;20065;-76
2021/07/24 05:32:34;;;;;;;10.43;8.27;;;31.80;98.70;;;;;;4994559;28;20476;-74
2021/07/24 05:34:59;;;;;;;15.95;8.80;;;32.50;97.30;;;;;;4993998;28;20038;-81
2021/07/24 05:37:25;;;;;;;15.90;8.65;;;32.40;97.20;;;;;;4994132;28;20105;-82
2021/07/24 05:39:50;;;;;;;20.30;8.00;;;32.80;96.80;;;;;;4994142;28;20033;-77
2021/07/24 05:42:16;;;;;;;13.90;8.23;;;33.10;96.10;;;;;;4994582;28;20023;-76
2021/07/24 05:44:42;;;;;;;15.15;8.18;;;33.40;95.80;;;;;;4994397;28;20077;-80
2021/07/24 05:47:07;;;;;;;18.15;7.38;;;33.70;95.40;;;;;;4994741;28;20471;-77
2021/07/24 05:49:35;;;;;;;12.93;7.43;;;33.80;95.00;;;;;;4994292;28;20513;-75
2021/07/24 05:52:01;;;;;;;13.60;7.15;;;34.50;94.50;;;;;;4993976;28;20034;-83
2021/07/24 05:54:26;;;;;;;11.60;7.68;;;35.20;93.50;;;;;;4994071;28;20102;-75
2021/07/24 05:56:52;;;;;;;10.88;8.05;;;35.50;93.30;;;;;;4993606;28;20054;-77
2021/07/24 05:59:18;;;;;;;10.43;8.10;;;35.50;92.60;;;;;;4994054;28;20034;-75
2021/07/24 06:01:43;;;;;;;14.68;8.18;;;35.80;92.20;;;;;;4993674;28;20476;-78
2021/07/24 06:04:09;;;;;;;10.88;7.63;;;36.20;92.10;;;;;;4993673;28;20025;-76
2021/07/24 06:06:35;;;;;;;10.25;6.57;;;36.60;91.30;;;;;;4993300;28;20031;-75
2021/07/24 06:09:01;;;;;;;9.95;6.65;;;36.40;91.10;;;;;;4976065;28;20034;-75
2021/07/24 06:11:26;;;;;;;10.05;6.93;;;36.80;90.50;;;;;;4975999;28;20030;-75
2021/07/24 06:13:52;;;;;;;12.63;7.10;;;37.40;90.10;;;;;;4993321;28;20439;-80
2021/07/24 06:16:18;;;;;;;11.65;6.63;;;38.10;88.80;;;;;;4993878;28;20030;-79
2021/07/24 06:18:43;;;;;;;12.73;6.50;;;39.00;87.40;;;;;;4993785;28;20058;-83
2021/07/24 06:21:16;;;;;;;18.15;7.72;;;39.10;85.40;;;;;;4993330;28;20053;-78
2021/07/24 06:23:42;;;;;;;10.45;7.15;;;39.50;85.10;;;;;;4993825;28;20105;-76
2021/07/24 06:26:08;;;;;;;13.52;6.78;;;40.00;84.40;;;;;;4993462;28;20022;-76
2021/07/24 06:28:35;;;;;;;10.07;6.75;;;40.70;82.00;;;;;;4993502;28;20036;-76
2021/07/24 06:31:01;;;;;;;14.48;7.60;;;40.70;82.20;;;;;;4993388;28;20121;-80
2021/07/24 06:33:27;;;;;;;16.70;7.22;;;40.60;81.20;;;;;;4974278;28;20042;-81
2021/07/24 06:35:53;;;;;;;12.13;7.13;;;40.20;81.50;;;;;;4993534;28;20026;-77
2021/07/24 06:38:19;;;;;;;14.55;6.75;;;40.90;80.80;;;;;;4992606;28;20101;-77
2021/07/24 06:40:45;;;;;;;8.00;7.15;;;42.20;79.40;;;;;;4993108;28;20510;-76
2021/07/24 06:43:11;;;;;;;16.08;6.70;;;42.90;77.10;;;;;;4993045;28;20022;-80
2021/07/24 06:45:37;;;;;;;14.10;6.85;;;43.70;75.40;;;;;;4993155;28;20514;-77
2021/07/24 06:48:03;;;;;;;11.50;6.68;;;43.90;74.70;;;;;;4993075;28;20018;-77
2021/07/24 06:50:30;;;;;;;14.75;6.30;;;44.50;73.50;;;;;;4992845;28;20499;-77
2021/07/24 06:52:59;;;;;;;16.60;6.25;;;44.80;72.50;;;;;;4992471;28;20029;-76
2021/07/24 06:55:28;;;;;;;13.05;6.97;;;45.70;70.90;;;;;;4993281;28;20398;-75
2021/07/24 06:57:55;;;;;;;7.95;5.75;;;46.30;70.30;;;;;;4992438;28;20105;-76
2021/07/24 07:00:21;;;;;;;11.32;5.90;;;46.30;68.80;;;;;;4992558;28;20026;-74
2021/07/24 07:02:47;;;;;;;9.27;6.18;;;47.10;67.60;;;;;;4985332;28;20030;-73
2021/07/24 07:05:12;;;;;;;11.02;5.97;;;47.20;66.60;;;;;;4992326;28;20093;-74
2021/07/24 07:07:38;;;;;;;12.63;6.25;;;47.10;65.90;;;;;;4992701;28;20084;-74
2021/07/24 07:10:04;;;;;;;18.38;6.35;;;47.20;65.30;;;;;;4992512;28;20038;-74
2021/07/24 07:12:30;;;;;;;13.82;6.90;;;46.20;65.50;;;;;;4992399;28;20026;-71
2021/07/24 07:14:58;;;;;;;13.93;6.10;;;46.00;66.00;;;;;;4992472;28;20459;-74
2021/07/24 07:17:24;;;;;;;13.73;6.22;;;45.00;66.40;;;;;;4992430;28;20031;-74
2021/07/24 07:19:50;;;;;;;11.40;7.10;;;43.70;68.70;;;;;;4992794;28;20018;-76
2021/07/24 07:22:16;;;;;;;11.25;6.55;;;42.70;70.30;;;;;;4991753;28;20023;-72
2021/07/24 07:24:42;;;;;;;11.25;7.40;;;41.10;71.50;;;;;;4990734;28;20110;-75
2021/07/24 07:27:08;;;;;;;18.25;7.05;;;40.10;73.00;;;;;;4992226;28;20387;-74
2021/07/24 07:29:33;;;;;;;12.75;7.97;;;39.40;74.30;;;;;;4991120;28;20030;-74
2021/07/24 07:31:59;;;;;;;10.27;8.55;;;38.50;76.20;;;;;;4992516;28;20026;-76
2021/07/24 07:34:24;;;;;;;10.20;7.82;;;37.80;77.80;;;;;;4994578;28;20049;-75
2021/07/24 07:36:50;;;;;;;13.02;9.10;;;37.50;79.70;;;;;;4996434;28;20077;-75
2021/07/24 07:39:16;;;;;;;14.65;8.38;;;37.20;80.10;;;;;;4996586;28;20026;-74
2021/07/24 07:41:42;;;;;;;16.02;8.52;;;36.90;78.50;;;;;;4996522;28;20105;-76
2021/07/24 07:44:07;;;;;;;13.30;9.10;;;36.70;79.90;;;;;;4996419;28;20038;-75
2021/07/24 07:46:33;;;;;;;14.40;9.18;;;36.50;80.10;;;;;;4996386;28;20462;-75
2021/07/24 07:48:59;;;;;;;11.93;8.80;;;36.40;79.90;;;;;;4995925;28;20022;-74
2021/07/24 07:51:25;;;;;;;13.75;8.27;;;36.40;80.20;;;;;;4996174;28;20026;-74
2021/07/24 07:53:50;;;;;;;18.60;8.50;;;36.50;79.40;;;;;;4996278;28;20109;-74
2021/07/24 07:56:16;;;;;;;15.25;9.07;;;36.60;79.30;;;;;;4996396;28;20069;-75
2021/07/24 07:58:42;;;;;;;24.42;10.60;;;36.60;79.80;;;;;;4996386;28;20546;-79
2021/07/24 08:01:12;;;;;;;19.70;10.05;;;36.20;80.70;;;;;;4988872;28;20011;-75
2021/07/24 08:03:39;;;;;;;19.55;9.55;;;36.00;81.80;;;;;;4990647;28;20378;-74
2021/07/24 08:06:04;;;;;;;20.33;9.23;;;36.20;81.40;;;;;;4978640;28;20380;-75
2021/07/24 08:08:30;;;;;;;16.70;9.52;;;36.10;81.60;;;;;;4996196;28;20030;-74
2021/07/24 08:10:56;;;;;;;15.07;10.05;;;36.20;81.10;;;;;;4996006;28;20042;-76
2021/07/24 08:13:22;;;;;;;23.85;9.70;;;36.40;81.10;;;;;;4996110;28;20085;-76
2021/07/24 08:15:48;;;;;;;20.52;9.52;;;36.40;81.30;;;;;;4995970;28;20529;-74
2021/07/24 08:18:14;;;;;;;15.15;9.55;;;36.60;81.60;;;;;;4995899;28;20030;-75
2021/07/24 08:20:41;;;;;;;19.73;9.68;;;36.40;81.90;;;;;;4978202;28;20033;-82
2021/07/24 08:23:08;;;;;;;17.23;8.85;;;36.20;82.00;;;;;;4995707;28;20509;-74
2021/07/24 08:25:34;;;;;;;18.45;8.95;;;36.20;82.40;;;;;;4995436;28;20483;-75
2021/07/24 08:28:04;;;;;;;11.98;9.43;;;36.00;83.60;;;;;;4994452;28;20029;-77
2021/07/24 08:30:30;;;;;;;13.50;9.05;;;35.60;84.40;;;;;;4994867;28;20034;-74
2021/07/24 08:32:56;;;;;;;17.23;9.73;;;35.50;84.90;;;;;;4994563;28;20093;-73
2021/07/24 08:35:22;;;;;;;21.95;9.70;;;35.40;85.00;;;;;;4978139;28;20031;-74
2021/07/24 08:37:48;;;;;;;15.07;9.82;;;35.30;84.20;;;;;;4995292;28;20029;-76
2021/07/24 08:40:14;;;;;;;17.02;9.15;;;35.40;84.50;;;;;;4995325;28;20470;-74
2021/07/24 08:42:41;;;;;;;14.57;8.70;;;35.70;85.00;;;;;;4995312;28;20030;-74
2021/07/24 08:45:13;;;;;;;10.75;8.77;;;36.00;83.40;;;;;;4993842;28;20046;-76
2021/07/24 08:47:40;;;;;;;17.90;9.43;;;36.40;82.20;;;;;;4995533;28;20475;-74
2021/07/24 08:50:08;;;;;;;13.07;8.85;;;36.50;81.90;;;;;;4994461;28;20034;-77
2021/07/24 08:52:35;;;;;;;13.77;8.77;;;36.50;79.90;;;;;;4992264;28;20041;-74
2021/07/24 08:55:02;;;;;;;13.15;8.82;;;36.60;80.30;;;;;;4994375;28;20045;-76
2021/07/24 08:57:33;;;;;;;12.45;8.77;;;36.50;79.20;;;;;;4994545;28;20073;-74
2021/07/24 09:00:07;;;;;;;20.20;9.20;;;36.10;80.40;;;;;;4976879;28;20027;-74
2021/07/24 09:02:36;;;;;;;19.65;9.07;;;36.20;81.40;;;;;;4994288;28;20491;-74
2021/07/24 09:05:05;;;;;;;16.70;8.00;;;36.40;81.10;;;;;;4995336;28;20080;-75
2021/07/24 09:07:40;;;;;;;14.48;7.68;;;36.50;81.30;;;;;;4994971;28;20028;-74
2021/07/24 09:10:11;;;;;;;17.02;8.57;;;36.60;79.70;;;;;;4986542;28;20056;-73
2021/07/24 09:12:39;;;;;;;14.63;7.43;;;36.60;79.70;;;;;;4990347;28;20034;-74
2021/07/24 09:15:06;;;;;;;13.73;7.75;;;36.40;79.60;;;;;;4995103;28;20029;-75
2021/07/24 09:17:32;;;;;;;17.38;7.85;;;36.60;80.40;;;;;;4994337;28;20023;-73
2021/07/24 09:19:58;;;;;;;16.23;8.70;;;36.70;79.00;;;;;;4993694;28;20026;-74
2021/07/24 09:22:31;;;;;;;22.65;9.60;;;36.60;79.50;;;;;;4994729;28;20050;-74
2021/07/24 09:25:08;;;;;;;15.00;9.45;;;36.10;80.70;;;;;;4986765;28;20105;-75
2021/07/24 09:27:42;;;;;;;12.93;9.38;;;35.70;82.20;;;;;;4994537;28;20085;-73
2021/07/24 09:30:31;;;;;;;13.32;8.90;;;35.60;82.60;;;;;;4986988;28;20120;-75
2021/07/24 09:33:07;;;;;;;15.35;9.13;;;35.80;81.50;;;;;;4993533;28;20447;-74
2021/07/24 09:35:42;;;;;;;17.73;8.88;;;35.80;82.20;;;;;;4994135;28;20028;-74
2021/07/24 09:38:29;;;;;;;12.15;8.43;;;35.50;82.60;;;;;;4994507;28;20023;-76
2021/07/24 09:40:56;;;;;;;15.07;9.60;;;35.60;83.80;;;;;;4994628;28;20538;-75
2021/07/24 09:43:32;;;;;;;12.18;9.35;;;35.70;83.30;;;;;;4993548;28;20084;-76
2021/07/24 09:46:21;;;;;;;15.05;9.18;;;36.00;83.30;;;;;;4993982;28;20043;-77
2021/07/24 09:48:49;;;;;;;14.90;8.65;;;36.10;83.50;;;;;;4994261;28;20571;-75
2021/07/24 09:51:30;;;;;;;19.45;9.45;;;35.80;84.20;;;;;;4993302;28;20113;-75
2021/07/24 09:53:55;;;;;;;13.38;8.77;;;35.40;84.00;;;;;;4993336;28;20037;-76
2021/07/24 09:56:42;;;;;;;12.85;9.18;;;35.30;84.20;;;;;;4993957;28;20030;-74
2021/07/24 09:59:19;;;;;;;10.82;8.80;;;35.30;84.20;;;;;;4994174;28;20114;-77
2021/07/24 10:02:02;;;;;;;17.50;9.50;;;35.30;83.80;;;;;;4993996;28;20088;-74
2021/07/24 10:04:30;;;;;;;18.55;10.15;;;35.30;83.60;;;;;;4993788;28;20018;-76
2021/07/24 10:06:58;;;;;;;14.40;8.90;;;35.20;83.90;;;;;;4993720;28;20030;-76
2021/07/24 10:09:30;;;;;;;16.30;9.52;;;35.00;84.70;;;;;;4992825;28;20043;-77
2021/07/24 10:11:56;;;;;;;;;;;34.80;84.70;;;;;;4992270;28;20042;-77
2021/07/24 10:14:23;;;;;;;15.60;9.27;;;34.90;85.30;;;;;;4991938;28;19905;-77
2021/07/24 10:16:50;;;;;;;13.68;9.25;;;34.90;83.60;;;;;;4974069;28;20023;-76
2021/07/24 10:19:20;;;;;;;18.63;9.48;;;35.10;83.70;;;;;;4992184;28;20049;-77
2021/07/24 10:21:47;;;;;;;19.40;9.38;;;34.90;82.60;;;;;;4992451;28;20070;-73
2021/07/24 10:24:13;;;;;;;14.23;9.38;;;34.60;83.70;;;;;;4992321;28;20018;-76
2021/07/24 10:26:48;;;;;;;13.43;9.48;;;34.60;84.70;;;;;;4992764;28;20498;-74
2021/07/24 10:29:17;;;;;;;17.35;9.13;;;34.70;84.80;;;;;;4993395;28;20049;-76
2021/07/24 10:31:54;;;;;;;12.43;9.20;;;34.70;83.90;;;;;;4993520;28;20061;-75
2021/07/24 10:34:26;;;;;;;15.55;9.95;;;34.50;84.10;;;;;;4993719;28;20022;-73
2021/07/24 10:36:52;;;;;;;14.23;8.40;;;34.20;84.90;;;;;;4993414;28;20049;-75
2021/07/24 10:39:18;;;;;;;16.55;9.38;;;34.10;84.30;;;;;;4993109;28;20172;-74
2021/07/24 10:42:10;;;;;;;13.57;9.23;;;34.10;84.80;;;;;;4993396;28;20105;-72
2021/07/24 10:44:43;;;;;;;12.63;9.25;;;33.80;85.30;;;;;;4984876;28;20049;-74
2021/07/24 10:47:15;;;;;;;16.40;9.70;;;33.50;85.90;;;;;;4982668;28;20035;-74
2021/07/24 10:49:44;;;;;;;16.88;9.98;;;33.30;86.40;;;;;;4993185;28;20034;-73
2021/07/24 10:52:10;;;;;;;15.15;9.50;;;33.20;87.00;;;;;;4993469;28;20118;-76
2021/07/24 10:55:14;;;;;;;14.00;9.38;;;33.20;87.00;;;;;;4993485;28;20027;-75
2021/07/24 10:57:45;;;;;;;12.43;8.95;;;33.50;87.00;;;;;;4993204;28;20498;-77
2021/07/24 11:00:18;;;;;;;14.50;9.48;;;33.80;85.90;;;;;;4993135;28;20383;-74
2021/07/24 11:02:45;;;;;;;23.40;9.63;;;34.00;85.40;;;;;;4993263;28;20022;-73
2021/07/24 11:05:37;;;;;;;20.33;9.48;;;34.20;85.80;;;;;;4993037;28;20064;-74
2021/07/24 11:08:03;;;;;;;13.50;9.20;;;34.50;85.60;;;;;;4992500;28;20022;-74
2021/07/24 11:10:28;;;;;;;12.55;9.05;;;34.50;85.50;;;;;;4992339;28;20125;-74
2021/07/24 11:12:54;;;;;;;19.55;8.85;;;34.40;86.60;;;;;;4982206;28;20408;-75
2021/07/24 11:15:39;;;;;;;19.27;10.05;;;34.30;87.20;;;;;;4991495;28;20030;-76
2021/07/24 11:18:27;;;;;;;29.13;9.27;;;34.10;87.40;;;;;;4993295;28;20531;-76
2021/07/24 11:20:53;;;;;;;14.25;9.63;;;33.90;86.90;;;;;;4981174;28;20030;-77
2021/07/24 11:23:20;;;;;;;14.25;9.32;;;33.60;88.60;;;;;;4993226;28;20061;-73
2021/07/24 11:25:46;;;;;;;13.25;9.50;;;33.40;89.40;;;;;;4993178;28;20443;-74
2021/07/24 11:28:23;;;;;;;13.80;9.23;;;33.40;89.20;;;;;;4992811;28;20030;-75
2021/07/24 11:31:05;;;;;;;15.57;9.48;;;33.30;89.50;;;;;;4992628;28;20058;-75
2021/07/24 11:33:31;;;;;;;17.17;9.50;;;33.20;88.90;;;;;;4992030;28;20577;-74
2021/07/24 11:36:05;;;;;;;16.40;9.40;;;33.30;90.50;;;;;;4983947;28;20030;-75
2021/07/24 11:38:31;;;;;;;12.43;9.23;;;33.50;90.20;;;;;;4992523;28;20114;-73
2021/07/24 11:41:01;;;;;;;15.30;9.13;;;33.80;89.80;;;;;;4992827;28;20108;-74
2021/07/24 11:43:27;;;;;;;13.50;8.73;;;33.80;89.10;;;;;;4992564;28;20545;-76
2021/07/24 11:46:00;;;;;;;17.30;9.38;;;34.00;86.50;;;;;;4992582;28;20113;-74
2021/07/24 11:48:26;;;;;;;20.98;9.40;;;34.10;87.20;;;;;;4992733;28;20022;-76
2021/07/24 11:51:01;;;;;;;14.20;9.23;;;34.10;86.30;;;;;;4992497;28;20035;-73
2021/07/24 11:53:27;;;;;;;18.20;9.40;;;34.30;85.60;;;;;;4992783;28;20022;-78
2021/07/24 11:55:52;;;;;;;13.80;9.18;;;34.30;85.00;;;;;;4975353;28;20042;-74
2021/07/24 11:58:19;;;;;;;16.48;9.18;;;34.30;84.90;;;;;;4992730;28;20109;-73
2021/07/24 12:00:49;;;;;;;14.18;8.48;;;34.20;85.50;;;;;;4992336;28;20094;-75
2021/07/24 12:03:27;;;;;;;11.88;8.35;;;34.10;85.10;;;;;;4992668;28;20029;-80
2021/07/24 12:05:57;;;;;;;18.13;8.80;;;34.30;84.80;;;;;;4992958;28;20022;-75
2021/07/24 12:08:25;;;;;;;15.23;8.30;;;34.40;84.90;;;;;;4991517;28;20029;-76
2021/07/24 12:10:52;;;;;;;11.52;8.70;;;34.40;85.10;;;;;;4992668;28;20081;-74
2021/07/24 12:13:23;;;;;;;17.27;8.48;;;34.30;85.20;;;;;;4992291;28;20026;-74
2021/07/24 12:16:05;;;;;;;13.68;8.10;;;34.10;85.70;;;;;;4992707;28;20031;-75
2021/07/24 12:18:38;;;;;;;;;;;33.70;85.60;;;;;;4980742;28;20031;-74
2021/07/24 12:21:20;;;;;;;15.98;8.10;;;33.70;86.20;;;;;;4995517;28;20351;-78
2021/07/24 12:24:00;;;;;;;15.75;8.57;;;33.70;86.40;;;;;;4996126;28;20030;-75
2021/07/24 12:26:33;;;;;;;13.82;8.07;;;33.70;86.20;;;;;;4995261;28;20022;-74
2021/07/24 12:29:11;;;;;;;18.73;8.48;;;33.80;85.80;;;;;;4995773;28;20023;-75
2021/07/24 12:31:47;;;;;;;16.35;9.50;;;33.90;85.10;;;;;;4996149;28;20077;-73
2021/07/24 12:34:21;;;;;;;19.75;9.48;;;33.90;85.00;;;;;;4978146;28;20022;-75
2021/07/24 12:36:55;;;;;;;16.70;8.88;;;33.70;85.70;;;;;;4995679;28;20507;-75
2021/07/24 12:39:22;;;;;;;18.02;8.90;;;33.50;85.80;;;;;;4995734;28;20120;-77
2021/07/24 12:41:57;;;;;;;19.83;9.48;;;33.40;85.90;;;;;;4995542;28;20109;-76
2021/07/24 12:44:22;;;;;;;20.10;8.95;;;33.10;87.00;;;;;;4995272;28;20062;-80